Time;durP1;ratioP1;P1;durP2;ratioP2;P2;SDS_P1;SDS_P2;PMS_P1;PMS_P2;Temp;Humidity;BMP_temperature;BMP_pressure;BME280_temperature;BME280_humidity;BME280_pressure;Samples;Min_cycle;Max_cycle;Signal;HPM_P1;HPM_P2
2022/01/26 00:07:43;;;;;;;28.00;15.15;;;;;;;;;;10270132;28;20075;-61
2022/01/26 00:12:41;;;;;;;24.45;15.45;;;;;;;;;;10269720;28;20087;-61
2022/01/26 00:17:40;;;;;;;21.77;14.98;;;;;;;;;;10267035;28;20076;-59
2022/01/26 00:22:54;;;;;;;30.30;16.88;;;;;;;;;;10272053;28;20060;-61
2022/01/26 00:28:06;;;;;;;28.35;15.05;;;;;;;;;;10267842;28;20065;-61
2022/01/26 00:38:36;;;;;;;22.15;14.02;;;;;;;;;;10268035;28;20076;-61
2022/01/26 00:43:36;;;;;;;23.10;13.88;;;;;;;;;;10265153;28;20045;-61
2022/01/26 00:48:37;;;;;;;21.40;14.00;;;;;;;;;;10263064;28;20099;-61
2022/01/26 00:53:44;;;;;;;23.63;14.68;;;;;;;;;;10266894;28;20090;-61
2022/01/26 00:58:44;;;;;;;23.10;14.73;;;;;;;;;;10264196;28;20095;-61
2022/01/26 01:03:45;;;;;;;27.90;15.55;;;;;;;;;;10269387;28;20529;-61
2022/01/26 01:08:45;;;;;;;28.00;16.88;;;;;;;;;;10266306;28;20065;-61
2022/01/26 01:13:46;;;;;;;35.95;19.52;;;;;;;;;;10262530;28;20084;-61
2022/01/26 01:18:50;;;;;;;32.83;16.05;;;;;;;;;;10266033;28;20075;-61
2022/01/26 01:29:17;;;;;;;21.42;13.90;;;;;;;;;;10257143;28;20528;-61
2022/01/26 01:34:16;;;;;;;23.25;14.40;;;;;;;;;;10271267;28;20075;-61
2022/01/26 01:39:14;;;;;;;23.27;15.15;;;;;;;;;;10263188;28;20069;-62
2022/01/26 01:44:15;;;;;;;22.15;13.32;;;;;;;;;;10267637;28;20064;-62
2022/01/26 01:49:14;;;;;;;19.90;13.02;;;;;;;;;;10268962;28;20069;-62
2022/01/26 01:54:15;;;;;;;24.98;15.13;;;;;;;;;;10264771;28;20576;-61
2022/01/26 01:59:14;;;;;;;23.88;14.60;;;;;;;;;;10263396;28;20087;-61
2022/01/26 02:04:13;;;;;;;32.25;19.45;;;;;;;;;;10267108;28;20061;-61
2022/01/26 02:09:11;;;;;;;33.80;15.57;;;;;;;;;;10262421;28;20075;-61
2022/01/26 02:14:17;;;;;;;23.00;15.25;;;;;;;;;;10266766;28;20095;-61
2022/01/26 02:51:34;;;;;;;21.70;14.18;;;;;;;;;;10274283;28;20485;-61
2022/01/26 02:56:46;;;;;;;18.58;12.50;;;;;;;;;;10272498;28;20077;-62
2022/01/26 03:01:52;;;;;;;22.75;13.80;;;;;;;;;;10274410;28;20119;-61
2022/01/26 03:06:57;;;;;;;25.92;14.70;;;;;;;;;;10268429;28;20557;-61
2022/01/26 03:11:58;;;;;;;54.03;26.45;;;;;;;;;;10271460;28;20079;-61
2022/01/26 03:17:01;;;;;;;28.77;17.70;;;;;;;;;;10270487;28;20516;-61
2022/01/26 03:22:19;;;;;;;26.83;15.90;;;;;;;;;;10276374;28;20063;-61
2022/01/26 03:37:58;;;;;;;28.92;15.27;;;;;;;;;;10264593;28;20514;-61
2022/01/26 03:42:57;;;;;;;26.58;16.08;;;;;;;;;;10278366;28;20529;-61
2022/01/26 03:47:56;;;;;;;31.42;18.23;;;;;;;;;;10274762;28;20517;-62
2022/01/26 03:52:54;;;;;;;25.85;15.40;;;;;;;;;;10274040;28;20088;-61
2022/01/26 03:57:53;;;;;;;21.52;13.10;;;;;;;;;;10268399;28;20095;-61
2022/01/26 04:02:52;;;;;;;34.50;17.95;;;;;;;;;;10272126;28;20073;-62
2022/01/26 04:07:56;;;;;;;35.03;18.10;;;;;;;;;;10271571;28;20036;-61
2022/01/26 04:12:55;;;;;;;35.00;18.77;;;;;;;;;;10268713;28;20065;-61
2022/01/26 04:17:55;;;;;;;28.08;18.75;;;;;;;;;;10270701;28;20478;-61
2022/01/26 04:23:05;;;;;;;37.85;26.45;;;;;;;;;;10269497;28;20080;-61
2022/01/26 04:28:08;;;;;;;87.30;43.13;;;;;;;;;;10269039;28;20091;-60
2022/01/26 04:33:08;;;;;;;51.90;27.42;;;;;;;;;;10269530;28;20052;-61
2022/01/26 04:38:16;;;;;;;35.25;19.83;;;;;;;;;;10265872;28;20060;-60
2022/01/26 04:43:18;;;;;;;25.40;15.27;;;;;;;;;;10267607;28;20537;-61
2022/01/26 04:48:18;;;;;;;31.42;17.00;;;;;;;;;;10261926;28;20045;-62
2022/01/26 04:53:17;;;;;;;33.72;18.80;;;;;;;;;;10273653;28;20073;-62
2022/01/26 04:58:15;;;;;;;32.95;20.75;;;;;;;;;;10273580;28;20075;-61
2022/01/26 05:03:13;;;;;;;42.22;23.27;;;;;;;;;;10270859;28;20064;-62
2022/01/26 05:08:13;;;;;;;40.65;20.95;;;;;;;;;;10267394;28;20136;-62
2022/01/26 05:13:14;;;;;;;51.60;28.23;;;;;;;;;;10270583;28;20072;-61
2022/01/26 05:18:12;;;;;;;52.20;26.33;;;;;;;;;;10267377;28;20107;-63
2022/01/26 05:23:11;;;;;;;49.28;25.05;;;;;;;;;;10265399;28;20077;-62
2022/01/26 05:28:10;;;;;;;63.47;33.97;;;;;;;;;;10268014;28;20077;-62
2022/01/26 05:33:09;;;;;;;49.17;28.48;;;;;;;;;;10263353;28;20076;-61
2022/01/26 05:38:07;;;;;;;69.63;37.03;;;;;;;;;;10268286;28;20490;-61
2022/01/26 05:43:05;;;;;;;28.30;17.35;;;;;;;;;;10266366;28;20087;-61
2022/01/26 05:48:10;;;;;;;28.55;16.63;;;;;;;;;;10265686;28;20068;-63
2022/01/26 05:53:08;;;;;;;34.03;18.83;;;;;;;;;;10267778;28;20529;-62
2022/01/26 05:58:06;;;;;;;38.50;21.42;;;;;;;;;;10271747;28;20072;-61
2022/01/26 06:03:06;;;;;;;40.45;25.20;;;;;;;;;;10261211;28;20107;-61
2022/01/26 06:08:05;;;;;;;43.00;25.10;;;;;;;;;;10272036;28;20094;-62
2022/01/26 06:13:03;;;;;;;35.15;21.67;;;;;;;;;;10265978;28;20494;-61
2022/01/26 06:18:01;;;;;;;34.10;21.35;;;;;;;;;;10262653;28;20073;-61
2022/01/26 06:23:03;;;;;;;31.63;20.15;;;;;;;;;;10258827;28;20107;-61
2022/01/26 06:28:06;;;;;;;33.88;20.73;;;;;;;;;;10253891;28;20099;-61
2022/01/26 06:33:05;;;;;;;39.08;21.48;;;;;;;;;;10266315;28;20069;-61
2022/01/26 06:38:05;;;;;;;57.72;29.70;;;;;;;;;;10267615;28;20084;-60
2022/01/26 06:43:08;;;;;;;83.18;40.25;;;;;;;;;;10262455;28;20072;-60
2022/01/26 06:48:37;;;;;;;50.80;22.83;;;;;;;;;;10264233;28;20076;-62
2022/01/26 06:53:34;;;;;;;33.15;19.42;;;;;;;;;;10261556;28;20104;-62
2022/01/26 06:58:32;;;;;;;32.28;18.55;;;;;;;;;;10262863;28;20073;-61
2022/01/26 07:03:31;;;;;;;31.30;18.13;;;;;;;;;;10263385;28;20064;-60
2022/01/26 07:08:29;;;;;;;38.65;22.05;;;;;;;;;;10262525;28;20068;-61
2022/01/26 07:13:29;;;;;;;24.17;16.08;;;;;;;;;;10259780;28;20080;-61
2022/01/26 07:23:48;;;;;;;26.58;15.82;;;;;;;;;;10251042;28;20088;-61
2022/01/26 07:28:48;;;;;;;32.67;17.77;;;;;;;;;;10266482;28;20073;-59
2022/01/26 07:33:53;;;;;;;30.23;19.20;;;;;;;;;;10260768;28;20497;-61
2022/01/26 07:38:54;;;;;;;20.05;14.65;;;;;;;;;;10260857;28;20080;-61
2022/01/26 07:43:54;;;;;;;23.42;14.70;;;;;;;;;;10266256;28;20073;-62
2022/01/26 07:48:56;;;;;;;68.70;34.08;;;;;;;;;;10258544;28;20102;-60
2022/01/26 07:53:54;;;;;;;33.30;17.77;;;;;;;;;;10268852;28;20076;-62
2022/01/26 07:58:54;;;;;;;30.60;18.55;;;;;;;;;;10265593;28;20068;-60
2022/01/26 08:03:52;;;;;;;28.33;18.50;;;;;;;;;;10261280;28;20082;-63
2022/01/26 08:08:51;;;;;;;33.78;19.33;;;;;;;;;;10266355;28;20478;-60
2022/01/26 08:13:49;;;;;;;35.55;20.20;;;;;;;;;;10263895;28;20065;-60
2022/01/26 08:18:49;;;;;;;70.40;35.30;;;;;;;;;;10268736;28;20731;-61
2022/01/26 08:23:48;;;;;;;25.38;16.83;;;;;;;;;;10266068;28;20064;-61
2022/01/26 08:28:52;;;;;;;33.53;19.77;;;;;;;;;;10261708;28;20068;-61
2022/01/26 08:33:52;;;;;;;34.85;22.20;;;;;;;;;;10265177;28;20503;-61
2022/01/26 08:38:50;;;;;;;29.33;20.25;;;;;;;;;;10261736;28;20522;-62
2022/01/26 08:43:48;;;;;;;37.25;24.08;;;;;;;;;;10261369;28;20076;-61
2022/01/26 08:48:47;;;;;;;38.92;25.35;;;;;;;;;;10264975;28;20077;-62
2022/01/26 08:53:49;;;;;;;48.30;25.55;;;;;;;;;;10267675;28;20076;-61
2022/01/26 08:58:47;;;;;;;29.95;18.10;;;;;;;;;;10265798;28;20521;-61
2022/01/26 09:03:46;;;;;;;32.42;20.52;;;;;;;;;;10266528;28;20365;-61
2022/01/26 09:08:46;;;;;;;42.20;23.30;;;;;;;;;;10267190;28;20076;-61
2022/01/26 09:13:47;;;;;;;26.58;17.38;;;;;;;;;;10265353;28;20075;-61
2022/01/26 09:18:50;;;;;;;22.10;15.48;;;;;;;;;;10265656;28;20544;-61
2022/01/26 09:23:49;;;;;;;26.48;16.80;;;;;;;;;;10265753;28;20090;-61
2022/01/26 09:28:48;;;;;;;31.92;22.85;;;;;;;;;;10267574;28;20061;-61
2022/01/26 09:33:47;;;;;;;43.10;30.25;;;;;;;;;;10264864;28;20056;-61
2022/01/26 09:38:45;;;;;;;22.52;15.50;;;;;;;;;;10266219;28;20075;-61
2022/01/26 09:43:44;;;;;;;27.85;15.55;;;;;;;;;;10267592;28;20514;-61
2022/01/26 09:48:44;;;;;;;40.60;21.73;;;;;;;;;;10264372;28;20072;-61
2022/01/26 09:53:42;;;;;;;26.08;18.27;;;;;;;;;;10262564;28;20072;-62
2022/01/26 09:58:42;;;;;;;32.72;20.50;;;;;;;;;;10266593;28;20084;-62
2022/01/26 10:03:44;;;;;;;31.92;22.02;;;;;;;;;;10264536;28;20060;-62
2022/01/26 10:09:24;;;;;;;37.53;21.83;;;;;;;;;;10266034;28;20060;-62
2022/01/26 10:19:35;;;;;;;26.95;15.23;;;;;;;;;;10263057;28;20076;-62
2022/01/26 10:24:35;;;;;;;43.92;23.77;;;;;;;;;;10266658;28;20075;-62
2022/01/26 10:29:36;;;;;;;31.10;21.38;;;;;;;;;;10265735;28;20049;-62
2022/01/26 10:34:34;;;;;;;48.85;35.72;;;;;;;;;;10262812;28;20076;-62
2022/01/26 10:39:36;;;;;;;30.00;19.50;;;;;;;;;;10265724;28;20084;-62
2022/01/26 10:44:41;;;;;;;40.45;23.17;;;;;;;;;;10261719;28;20467;-62
2022/01/26 10:49:56;;;;;;;41.40;28.10;;;;;;;;;;10269575;28;20084;-62
2022/01/26 10:54:55;;;;;;;25.42;18.77;;;;;;;;;;10263891;28;20057;-62
2022/01/26 10:59:55;;;;;;;35.83;24.13;;;;;;;;;;10262659;28;20065;-61
2022/01/26 11:04:53;;;;;;;37.05;23.33;;;;;;;;;;10268986;28;20107;-62
2022/01/26 11:09:52;;;;;;;44.08;24.90;;;;;;;;;;10271812;28;20495;-61
2022/01/26 11:14:51;;;;;;;31.65;18.45;;;;;;;;;;10271707;28;20056;-61
2022/01/26 11:19:51;;;;;;;37.08;21.08;;;;;;;;;;10271324;28;20088;-62
2022/01/26 11:24:49;;;;;;;24.70;15.55;;;;;;;;;;10277602;28;20073;-62
2022/01/26 11:29:53;;;;;;;42.22;22.77;;;;;;;;;;10274839;28;20064;-62
2022/01/26 11:34:53;;;;;;;36.17;23.42;;;;;;;;;;10274196;28;20412;-62
2022/01/26 11:45:13;;;;;;;29.98;19.58;;;;;;;;;;10274419;28;20041;-62
2022/01/26 11:50:14;;;;;;;36.42;19.33;;;;;;;;;;10274041;28;20114;-62
2022/01/26 11:55:23;;;;;;;35.30;21.70;;;;;;;;;;10272581;28;20486;-64
2022/01/26 12:00:39;;;;;;;30.88;22.33;;;;;;;;;;10266241;28;20640;-62
2022/01/26 12:05:49;;;;;;;29.50;16.90;;;;;;;;;;10262128;28;20486;-63
2022/01/26 12:10:53;;;;;;;;;;;;;;;;;;10268590;28;20099;-62
2022/01/26 12:15:55;;;;;;;34.70;20.75;;;;;;;;;;10263237;28;19975;-62
2022/01/26 12:36:59;;;;;;;;;;;;;;;;;;10270622;28;20533;-62
2022/01/26 12:42:09;;;;;;;31.10;19.98;;;;;;;;;;10269327;28;19956;-62
2022/01/26 12:47:08;;;;;;;36.95;20.05;;;;;;;;;;10268391;28;20076;-61
2022/01/26 12:52:10;;;;;;;38.72;24.85;;;;;;;;;;10266111;28;20082;-62
2022/01/26 12:57:12;;;;;;;47.72;27.40;;;;;;;;;;10267524;28;20076;-61
2022/01/26 13:02:10;;;;;;;54.35;32.90;;;;;;;;;;10265745;28;20076;-61
2022/01/26 13:07:16;;;;;;;57.25;32.30;;;;;;;;;;10268612;28;20068;-61
2022/01/26 13:12:18;;;;;;;31.67;20.67;;;;;;;;;;10269352;28;20529;-61
2022/01/26 13:17:30;;;;;;;50.75;28.30;;;;;;;;;;10271056;28;20072;-62
2022/01/26 13:28:13;;;;;;;65.07;33.80;;;;;;;;;;10284070;27;20410;-61
2022/01/26 13:38:42;;;;;;;42.65;24.38;;;;;;;;;;10279935;28;20068;-61
2022/01/26 13:44:15;;;;;;;46.15;35.15;;;;;;;;;;10293789;28;20126;-62
2022/01/26 13:49:43;;;;;;;31.40;19.20;;;;;;;;;;10298116;28;20513;-62
2022/01/26 13:59:58;;;;;;;25.63;16.63;;;;;;;;;;10298361;28;20060;-61
2022/01/26 14:04:56;;;;;;;41.53;23.65;;;;;;;;;;10296362;28;20073;-61
2022/01/26 14:09:56;;;;;;;30.80;19.23;;;;;;;;;;10298562;28;20065;-61
2022/01/26 14:14:59;;;;;;;26.35;18.60;;;;;;;;;;10295678;28;20071;-62
2022/01/26 14:20:10;;;;;;;32.55;21.58;;;;;;;;;;10298326;28;20106;-62
2022/01/26 14:25:17;;;;;;;31.75;21.30;;;;;;;;;;10292914;28;20087;-62
2022/01/26 14:30:29;;;;;;;22.48;16.08;;;;;;;;;;10292995;28;20498;-62
2022/01/26 14:41:04;;;;;;;55.38;31.20;;;;;;;;;;10277183;27;20751;-63
2022/01/26 14:51:40;;;;;;;81.88;42.97;;;;;;;;;;10268291;28;20072;-62
2022/01/26 15:34:11;;;;;;;149.93;71.45;;;;;;;;;;10222556;28;20069;-59
2022/01/26 15:44:40;;;;;;;93.72;45.30;;;;;;;;;;10262732;28;20290;-60
2022/01/26 15:49:54;;;;;;;99.05;48.70;;;;;;;;;;10251920;28;20076;-60
2022/01/26 16:21:22;;;;;;;326.25;137.93;;;;;;;;;;10237612;28;20490;-61
2022/01/26 16:26:43;;;;;;;195.32;101.22;;;;;;;;;;10238776;28;20077;-60
2022/01/26 16:53:41;;;;;;;142.27;67.72;;;;;;;;;;10235022;28;20201;-60
2022/01/26 18:17:55;;;;;;;41.05;29.30;;;;;;;;;;10230760;28;20072;-60
2022/01/26 18:38:44;;;;;;;51.15;36.63;;;;;;;;;;10228097;28;19960;-61
2022/01/26 18:39:20;;;;;;;47.42;31.42;;;;;;;;;;10229352;28;20072;-60
2022/01/26 18:49:36;;;;;;;47.95;28.15;;;;;;;;;;10232120;28;20510;-61
2022/01/26 18:54:35;;;;;;;60.40;33.78;;;;;;;;;;10227615;28;20033;-59
2022/01/26 18:59:34;;;;;;;49.70;31.42;;;;;;;;;;10224305;28;20117;-59
2022/01/26 19:04:36;;;;;;;42.80;28.58;;;;;;;;;;10226101;28;20065;-60
2022/01/26 19:09:40;;;;;;;38.85;27.02;;;;;;;;;;10230281;28;20071;-60
2022/01/26 19:14:41;;;;;;;39.53;24.30;;;;;;;;;;10229859;28;20472;-60
2022/01/26 19:19:47;;;;;;;41.42;26.30;;;;;;;;;;10228393;28;20065;-60
2022/01/26 19:24:54;;;;;;;44.88;28.88;;;;;;;;;;10231094;28;20148;-61
2022/01/26 19:46:00;;;;;;;43.75;24.98;;;;;;;;;;10220969;28;19960;-60
2022/01/26 19:50:59;;;;;;;50.30;29.92;;;;;;;;;;10233914;28;20057;-60
2022/01/26 19:55:57;;;;;;;61.42;36.67;;;;;;;;;;10235111;28;20084;-62
2022/01/26 20:00:58;;;;;;;55.92;33.33;;;;;;;;;;10237342;28;20080;-59
2022/01/26 20:05:56;;;;;;;58.53;36.10;;;;;;;;;;10233543;28;20506;-61
2022/01/26 20:10:59;;;;;;;37.50;25.42;;;;;;;;;;10231495;28;20079;-59
2022/01/26 20:15:59;;;;;;;58.42;35.85;;;;;;;;;;10232117;28;20069;-60
2022/01/26 20:21:03;;;;;;;82.70;50.97;;;;;;;;;;10232936;28;20088;-59
2022/01/26 20:26:03;;;;;;;75.88;45.08;;;;;;;;;;10231493;28;20147;-60
2022/01/26 20:31:05;;;;;;;54.40;33.08;;;;;;;;;;10234899;28;20073;-60
2022/01/26 20:36:04;;;;;;;61.72;34.30;;;;;;;;;;10232720;28;20041;-60
2022/01/26 20:41:02;;;;;;;53.03;31.25;;;;;;;;;;10234785;28;20451;-61
2022/01/26 20:46:04;;;;;;;52.67;32.58;;;;;;;;;;10232130;28;20537;-61
2022/01/26 20:51:04;;;;;;;46.70;26.42;;;;;;;;;;10232124;28;20123;-59
2022/01/26 20:56:03;;;;;;;42.85;26.02;;;;;;;;;;10233632;28;20323;-60
2022/01/26 21:01:02;;;;;;;38.35;25.42;;;;;;;;;;10231624;28;20077;-61
2022/01/26 21:06:01;;;;;;;51.70;29.33;;;;;;;;;;10229454;28;20084;-61
2022/01/26 21:11:01;;;;;;;42.22;26.08;;;;;;;;;;10229531;28;20072;-60
2022/01/26 21:16:01;;;;;;;42.35;27.50;;;;;;;;;;10230225;28;20159;-60
2022/01/26 21:21:00;;;;;;;43.00;24.77;;;;;;;;;;10230350;28;20072;-61
2022/01/26 21:25:59;;;;;;;84.43;38.45;;;;;;;;;;10235502;28;20123;-60
2022/01/26 21:30:58;;;;;;;38.17;24.17;;;;;;;;;;10233556;28;20482;-61
2022/01/26 21:35:57;;;;;;;33.03;22.15;;;;;;;;;;10233164;28;20073;-60
2022/01/26 21:40:55;;;;;;;39.15;23.60;;;;;;;;;;10234880;28;20069;-60
2022/01/26 21:45:54;;;;;;;31.88;20.55;;;;;;;;;;10232031;28;20562;-59
2022/01/26 21:50:53;;;;;;;31.10;21.15;;;;;;;;;;10230624;28;20084;-59
2022/01/26 21:55:52;;;;;;;29.63;20.13;;;;;;;;;;10228437;28;20076;-62
2022/01/26 22:00:50;;;;;;;34.33;20.17;;;;;;;;;;10229640;28;20129;-60
2022/01/26 22:05:49;;;;;;;31.55;21.20;;;;;;;;;;10228134;28;20087;-59
2022/01/26 22:10:48;;;;;;;34.95;21.38;;;;;;;;;;10228746;28;20073;-59
2022/01/26 22:15:47;;;;;;;39.55;24.33;;;;;;;;;;10226542;28;20064;-60
2022/01/26 22:20:45;;;;;;;37.47;22.55;;;;;;;;;;10227461;28;20545;-61
2022/01/26 22:25:43;;;;;;;49.70;27.50;;;;;;;;;;10229217;28;20073;-59
2022/01/26 22:30:44;;;;;;;35.85;22.58;;;;;;;;;;10232413;28;20068;-61
2022/01/26 22:35:42;;;;;;;44.55;24.85;;;;;;;;;;10234830;28;20037;-61
2022/01/26 22:40:41;;;;;;;37.28;23.35;;;;;;;;;;10230689;28;20475;-60
2022/01/26 22:45:42;;;;;;;44.40;26.98;;;;;;;;;;10235055;28;20076;-61
2022/01/26 22:50:42;;;;;;;42.78;24.27;;;;;;;;;;10228886;28;20479;-60
2022/01/26 22:55:41;;;;;;;41.05;22.85;;;;;;;;;;10233776;28;20073;-61
2022/01/26 23:01:02;;;;;;;38.53;27.13;;;;;;;;;;10233990;28;20088;-61
2022/01/26 23:06:12;;;;;;;35.95;24.92;;;;;;;;;;10236162;28;20541;-60
2022/01/26 23:11:11;;;;;;;36.10;21.45;;;;;;;;;;10235405;28;20081;-61
2022/01/26 23:16:09;;;;;;;42.38;26.15;;;;;;;;;;10238190;28;20057;-60
2022/01/26 23:21:09;;;;;;;44.03;25.27;;;;;;;;;;10236530;28;20073;-60
2022/01/26 23:26:22;;;;;;;40.13;25.15;;;;;;;;;;10240682;28;20530;-60
2022/01/26 23:31:36;;;;;;;37.92;22.67;;;;;;;;;;10233865;28;20474;-60
